Time;durP1;ratioP1;P1;durP2;ratioP2;P2;SDS_P1;SDS_P2;PMS_P1;PMS_P2;Temp;Humidity;BMP_temperature;BMP_pressure;BME280_temperature;BME280_humidity;BME280_pressure;Samples;Min_cycle;Max_cycle;Signal;HPM_P1;HPM_P2
2021/06/05 00:02:09;;;;;;;6.37;5.87;;;;;;;20.94;74.44;100793.00;5082394;28;20223;-69
2021/06/05 00:04:35;;;;;;;6.53;6.13;;;;;;;20.90;74.56;100788.81;5082636;28;20231;-69
2021/06/05 00:07:01;;;;;;;6.73;6.20;;;;;;;20.92;74.30;100790.44;5082953;28;20241;-69
2021/06/05 00:09:28;;;;;;;6.43;5.93;;;;;;;20.93;74.40;100793.94;5082396;28;20755;-68
2021/06/05 00:11:54;;;;;;;6.30;5.80;;;;;;;20.93;74.32;100793.94;5082852;28;20643;-69
2021/06/05 00:14:20;;;;;;;6.20;5.90;;;;;;;20.91;74.19;100777.25;5082142;28;20327;-69
2021/06/05 00:16:49;;;;;;;6.17;5.73;;;;;;;20.91;74.16;100779.91;5082968;28;20495;-69
2021/06/05 00:19:18;;;;;;;6.53;5.93;;;;;;;20.90;74.09;100778.19;5082607;28;20232;-68
2021/06/05 00:21:44;;;;;;;6.43;6.10;;;;;;;20.82;74.46;100773.31;5082316;28;20231;-68
2021/06/05 00:24:11;;;;;;;7.43;6.90;;;;;;;20.83;74.21;100775.00;5082583;28;20224;-69
2021/06/05 00:26:38;;;;;;;9.37;8.57;;;;;;;20.53;74.93;100772.25;5082089;28;20244;-69
2021/06/05 00:29:04;;;;;;;8.37;7.77;;;;;;;20.53;75.19;100765.16;5081707;28;20714;-68
2021/06/05 00:31:31;;;;;;;7.90;7.40;;;;;;;20.61;75.03;100776.25;5086764;28;20242;-69
2021/06/05 00:33:57;;;;;;;8.60;8.00;;;;;;;20.60;74.69;100771.88;5085662;28;20308;-69
2021/06/05 00:36:24;;;;;;;11.33;10.63;;;;;;;20.46;75.72;100773.56;5086488;28;20638;-68
2021/06/05 00:38:50;;;;;;;11.20;10.40;;;;;;;20.29;76.67;100771.81;5086296;28;20242;-69
2021/06/05 00:41:18;;;;;;;10.70;10.00;;;;;;;20.35;76.04;100767.00;5086048;28;20229;-69
2021/06/05 00:43:47;;;;;;;10.47;9.67;;;;;;;20.38;75.80;100766.88;5085691;28;20232;-69
2021/06/05 00:46:15;;;;;;;10.70;9.73;;;;;;;20.35;76.02;100766.16;5086009;28;20208;-69
2021/06/05 00:48:41;;;;;;;8.43;7.93;;;;;;;20.36;75.68;100765.25;5086450;28;20269;-69
2021/06/05 00:51:08;;;;;;;8.17;7.63;;;;;;;20.41;75.55;100765.81;5085676;28;20228;-69
2021/06/05 00:53:35;;;;;;;8.27;7.60;;;;;;;20.37;75.47;100759.84;5085641;28;20314;-69
2021/06/05 00:56:02;;;;;;;7.77;7.30;;;;;;;20.38;75.47;100761.56;5085337;28;20349;-70
2021/06/05 00:58:30;;;;;;;7.37;6.87;;;;;;;20.28;75.56;100755.06;5085930;28;20214;-69
2021/06/05 01:01:00;;;;;;;7.00;6.60;;;;;;;20.28;75.61;100762.13;5086195;28;20228;-69
2021/06/05 01:03:27;;;;;;;6.87;6.53;;;;;;;20.29;75.29;100761.19;5085381;28;20251;-69
2021/06/05 01:05:57;;;;;;;7.53;7.13;;;;;;;20.26;75.95;100754.28;5085889;28;20716;-69
2021/06/05 01:08:30;;;;;;;7.83;7.37;;;;;;;20.30;75.58;100754.97;5085186;28;20232;-69
2021/06/05 01:11:06;;;;;;;7.93;7.37;;;;;;;20.27;75.58;100750.66;5086250;28;20199;-69
2021/06/05 01:13:39;;;;;;;7.00;6.50;;;;;;;20.24;75.77;100753.50;5085187;28;20300;-69
2021/06/05 01:16:11;;;;;;;8.20;7.50;;;;;;;20.23;75.69;100754.44;5085436;28;20219;-69
2021/06/05 01:18:42;;;;;;;7.53;7.03;;;;;;;20.21;75.41;100748.34;5085860;28;20240;-68
2021/06/05 01:21:31;;;;;;;8.03;7.43;;;;;;;20.17;75.44;100754.78;5085131;28;20230;-69
2021/06/05 01:24:09;;;;;;;8.27;7.63;;;;;;;20.13;75.57;100756.72;5085106;28;20224;-69
2021/06/05 01:26:37;;;;;;;9.37;8.67;;;;;;;20.08;75.82;100747.31;5085032;28;20292;-69
2021/06/05 01:29:12;;;;;;;8.70;8.00;;;;;;;20.07;76.25;100751.75;5084914;28;20693;-69
2021/06/05 01:31:41;;;;;;;8.20;7.60;;;;;;;19.95;76.45;100750.63;5085645;28;20199;-69
2021/06/05 01:34:07;;;;;;;9.63;9.03;;;;;;;19.92;76.92;100756.09;5084824;28;20736;-69
2021/06/05 01:36:35;;;;;;;10.83;10.17;;;;;;;19.43;79.67;100759.44;5085419;28;20704;-69
2021/06/05 01:39:05;;;;;;;11.10;10.40;;;;;;;19.41;79.72;100758.66;5084620;28;20292;-69
2021/06/05 01:41:33;;;;;;;9.53;8.83;;;;;;;19.55;78.98;100757.13;5084708;28;20259;-69
2021/06/05 01:44:02;;;;;;;8.50;8.00;;;;;;;19.61;78.42;100748.84;5084078;28;20256;-69
2021/06/05 01:46:31;;;;;;;9.57;8.97;;;;;;;19.67;78.41;100760.94;5085163;28;20208;-69
2021/06/05 01:48:57;;;;;;;9.20;8.70;;;;;;;19.70;78.65;100752.81;5084754;28;20253;-68
2021/06/05 01:51:24;;;;;;;8.97;8.43;;;;;;;19.69;78.20;100751.97;5084192;28;20266;-69
2021/06/05 01:53:53;;;;;;;9.33;8.63;;;;;;;19.74;78.13;100743.78;5084892;28;20256;-69
2021/06/05 01:56:26;;;;;;;10.07;9.47;;;;;;;19.75;77.72;100749.00;5084406;28;20254;-69
2021/06/05 01:58:53;;;;;;;8.30;7.80;;;;;;;19.75;78.00;100749.00;5084480;28;20223;-69
2021/06/05 02:01:21;;;;;;;9.00;8.40;;;;;;;19.76;77.89;100756.03;5084714;28;20346;-68
2021/06/05 02:03:49;;;;;;;9.63;9.03;;;;;;;19.82;77.78;100760.13;5084010;28;20698;-69
2021/06/05 02:06:15;;;;;;;9.10;8.50;;;;;;;19.78;78.10;100755.94;5084951;28;20213;-69
2021/06/05 02:08:41;;;;;;;8.50;8.00;;;;;;;19.79;77.63;100755.88;5084060;28;20686;-69
2021/06/05 02:11:13;;;;;;;9.00;8.43;;;;;;;19.70;78.05;100755.44;5084538;28;20196;-69
2021/06/05 02:13:42;;;;;;;8.50;7.90;;;;;;;19.65;77.98;100745.97;5083758;28;20324;-69
2021/06/05 02:16:14;;;;;;;7.67;6.97;;;;;;;19.68;77.68;100749.38;5084302;28;20269;-69
2021/06/05 02:18:47;;;;;;;6.43;6.10;;;;;;;19.68;77.87;100742.28;5084260;28;20213;-69
2021/06/05 02:21:16;;;;;;;6.57;6.17;;;;;;;19.71;77.59;100746.59;5083930;28;20263;-69
2021/06/05 02:23:46;;;;;;;6.50;6.00;;;;;;;19.73;77.63;100742.94;5084002;28;20235;-69
2021/06/05 02:26:15;;;;;;;6.00;5.60;;;;;;;19.75;77.70;100737.56;5083614;28;20708;-69
2021/06/05 02:28:42;;;;;;;6.17;5.87;;;;;;;19.62;78.00;100735.53;5083943;28;20219;-69
2021/06/05 02:31:09;;;;;;;6.37;6.07;;;;;;;19.62;77.89;100729.38;5083550;28;21101;-69
2021/06/05 02:33:37;;;;;;;6.47;5.90;;;;;;;19.62;78.18;100730.25;5083457;28;20281;-68
2021/06/05 02:36:09;;;;;;;6.50;6.03;;;;;;;19.62;78.41;100734.66;5084130;28;20235;-69
2021/06/05 02:38:36;;;;;;;6.70;5.90;;;;;;;19.58;78.11;100731.34;5083697;28;20216;-69
2021/06/05 02:41:03;;;;;;;6.13;5.73;;;;;;;19.61;78.15;100735.63;5084386;28;20255;-68
2021/06/05 02:43:32;;;;;;;6.90;6.50;;;;;;;19.59;78.35;100738.34;5083067;28;20263;-69
2021/06/05 02:46:03;;;;;;;7.13;6.47;;;;;;;19.52;78.94;100739.56;5083555;28;20227;-69
2021/06/05 02:48:45;;;;;;;6.70;6.30;;;;;;;19.54;78.34;100742.16;5084105;28;20651;-69
2021/06/05 02:51:14;;;;;;;7.30;6.60;;;;;;;19.46;79.11;100742.53;5083424;28;20226;-69
2021/06/05 02:57:04;;;;;;;8.07;7.47;;;;;;;18.79;82.24;100736.13;5080909;28;20738;-69
2021/06/05 02:59:31;;;;;;;8.20;7.67;;;;;;;18.93;81.67;100731.09;5083727;28;20244;-69
2021/06/05 03:01:57;;;;;;;7.63;7.13;;;;;;;18.96;81.01;100733.56;5083033;28;20717;-69
2021/06/05 03:04:23;;;;;;;7.03;6.63;;;;;;;19.00;80.57;100732.47;5083200;28;20224;-69
2021/06/05 03:06:52;;;;;;;6.23;5.93;;;;;;;19.07;79.91;100737.47;5083070;28;20894;-68
2021/06/05 03:09:19;;;;;;;6.40;6.00;;;;;;;19.17;79.44;100733.44;5083143;28;20763;-69
2021/06/05 03:11:47;;;;;;;6.33;6.03;;;;;;;19.22;79.39;100736.69;5083850;28;20207;-69
2021/06/05 03:14:14;;;;;;;6.63;6.23;;;;;;;19.25;78.86;100736.56;5082856;28;20235;-69
2021/06/05 03:16:40;;;;;;;6.73;6.33;;;;;;;19.20;79.34;100734.13;5083476;28;20207;-69
2021/06/05 03:19:06;;;;;;;7.27;6.67;;;;;;;19.17;79.11;100736.94;5082975;28;20237;-68
2021/06/05 03:21:32;;;;;;;7.17;6.67;;;;;;;19.10;79.24;100734.69;5083232;28;20261;-69
2021/06/05 03:23:59;;;;;;;6.97;6.57;;;;;;;18.99;80.23;100728.13;5083057;28;20575;-69
2021/06/05 03:26:25;;;;;;;7.47;6.97;;;;;;;18.97;80.53;100732.66;5082494;28;20211;-68
2021/06/05 03:28:51;;;;;;;7.03;6.63;;;;;;;18.90;80.92;100719.78;5083337;28;20208;-69
2021/06/05 03:31:20;;;;;;;7.20;6.80;;;;;;;18.96;80.95;100727.41;5082835;28;20200;-69
2021/06/05 03:33:47;;;;;;;7.23;6.80;;;;;;;19.08;80.24;100723.31;5082476;28;20263;-68
2021/06/05 03:36:12;;;;;;;7.50;7.10;;;;;;;19.07;80.63;100727.75;5083279;28;20208;-69
2021/06/05 03:38:41;;;;;;;7.83;7.33;;;;;;;19.10;80.33;100726.75;5082594;28;20204;-68
2021/06/05 03:41:09;;;;;;;7.90;7.40;;;;;;;19.19;80.12;100723.63;5082952;28;20236;-68
2021/06/05 03:43:35;;;;;;;7.30;6.90;;;;;;;19.22;80.03;100726.13;5082512;28;20228;-68
2021/06/05 03:46:01;;;;;;;7.43;6.97;;;;;;;19.23;80.37;100725.19;5083012;28;20204;-69
2021/06/05 03:48:26;;;;;;;6.90;6.60;;;;;;;19.29;79.67;100724.88;5083298;28;20292;-69
2021/06/05 03:50:54;;;;;;;7.60;7.10;;;;;;;19.32;80.23;100724.72;5082762;28;20233;-69
2021/06/05 03:53:22;;;;;;;7.43;7.03;;;;;;;19.30;80.74;100728.38;5082639;28;20315;-69
2021/06/05 03:55:48;;;;;;;7.63;7.20;;;;;;;19.29;80.71;100732.81;5082096;28;20203;-69
2021/06/05 03:58:16;;;;;;;6.97;6.63;;;;;;;19.36;80.19;100728.91;5082425;28;20281;-69
2021/06/05 04:00:45;;;;;;;7.47;7.07;;;;;;;19.41;80.37;100731.34;5083506;28;20212;-69
2021/06/05 04:03:12;;;;;;;7.10;6.70;;;;;;;19.40;79.89;100734.91;5082141;28;20223;-69
2021/06/05 04:05:40;;;;;;;6.83;6.43;;;;;;;19.41;79.83;100723.41;5085696;28;20276;-69
2021/06/05 04:08:07;;;;;;;6.70;6.30;;;;;;;19.43;79.77;100729.47;5086133;28;20200;-69
2021/06/05 04:10:34;;;;;;;6.47;6.03;;;;;;;19.47;79.63;100725.72;5086932;28;20211;-69
2021/06/05 04:13:00;;;;;;;6.90;6.50;;;;;;;19.51;79.66;100731.72;5086524;28;20767;-69
2021/06/05 04:15:30;;;;;;;8.97;8.03;;;;;;;19.33;80.46;100726.44;5086418;28;20231;-69
2021/06/05 04:18:01;;;;;;;10.33;9.60;;;;;;;19.43;79.78;100735.63;5086629;28;20585;-69
2021/06/05 04:20:27;;;;;;;9.70;8.90;;;;;;;19.39;79.88;100731.41;5086458;28;20207;-69
2021/06/05 04:22:54;;;;;;;10.00;9.30;;;;;;;19.44;80.00;100732.06;5086153;28;20238;-69
2021/06/05 04:25:20;;;;;;;9.97;9.37;;;;;;;19.55;79.36;100728.84;5086883;28;20219;-69
2021/06/05 04:27:48;;;;;;;9.70;9.07;;;;;;;19.53;79.67;100730.72;5086159;28;20207;-69
2021/06/05 04:30:16;;;;;;;10.40;9.77;;;;;;;19.53;79.61;100730.72;5086304;28;20657;-69
2021/06/05 04:32:44;;;;;;;9.13;8.63;;;;;;;19.57;79.39;100731.41;5085621;28;20302;-69
2021/06/05 04:35:10;;;;;;;11.30;10.43;;;;;;;19.62;79.36;100732.91;5086310;28;20341;-69
2021/06/05 04:37:36;;;;;;;11.07;10.37;;;;;;;19.53;79.88;100732.50;5086386;28;20699;-69
2021/06/05 04:40:05;;;;;;;12.30;11.40;;;;;;;19.56;79.70;100732.34;5085928;28;20695;-68
2021/06/05 04:42:31;;;;;;;11.67;10.97;;;;;;;19.58;80.04;100727.81;5085554;28;20739;-69
2021/06/05 04:44:57;;;;;;;10.60;10.00;;;;;;;19.61;79.82;100723.22;5085754;28;20224;-69
2021/06/05 04:47:23;;;;;;;10.57;9.80;;;;;;;19.64;79.57;100720.44;5086169;28;20234;-69
2021/06/05 04:49:51;;;;;;;11.83;10.13;;;;;;;19.66;79.39;100725.63;5085944;28;20318;-69
2021/06/05 04:52:16;;;;;;;9.30;8.70;;;;;;;19.69;79.44;100717.53;5086027;28;20227;-69
2021/06/05 04:54:42;;;;;;;9.37;8.60;;;;;;;19.73;80.08;100727.06;5085941;28;20319;-69
2021/06/05 04:57:08;;;;;;;19.13;8.60;;;;;;;19.67;80.58;100723.84;5085577;28;20322;-69
2021/06/05 04:59:34;;;;;;;8.93;8.23;;;;;;;19.68;80.48;100729.03;5086375;28;20593;-69
2021/06/05 05:02:00;;;;;;;8.87;8.17;;;;;;;19.76;79.74;100726.03;5084897;28;20227;-69
2021/06/05 05:04:26;;;;;;;8.57;7.80;;;;;;;19.79;80.10;100729.38;5085684;28;20284;-69
2021/06/05 05:06:53;;;;;;;7.60;7.00;;;;;;;19.83;80.08;100730.06;5086013;28;20209;-69
2021/06/05 05:09:19;;;;;;;7.90;7.30;;;;;;;19.87;80.09;100728.13;5085474;28;20234;-69
2021/06/05 05:11:45;;;;;;;7.50;7.10;;;;;;;19.91;80.49;100735.81;5085765;28;20690;-69
2021/06/05 05:14:12;;;;;;;7.67;7.07;;;;;;;19.96;80.14;100735.56;5084813;28;20242;-68
2021/06/05 05:16:38;;;;;;;7.90;7.40;;;;;;;19.92;80.01;100740.19;5084437;28;20215;-69
2021/06/05 05:19:04;;;;;;;10.87;10.13;;;;;;;19.64;81.92;100736.31;5085591;28;20739;-69
2021/06/05 05:21:31;;;;;;;12.77;12.00;;;;;;;19.00;84.93;100737.75;5085203;28;20222;-69
2021/06/05 05:23:59;;;;;;;13.97;13.00;;;;;;;18.92;85.76;100734.66;5085041;28;20254;-69
2021/06/05 05:26:26;;;;;;;12.93;12.13;;;;;;;19.02;85.14;100733.25;5085204;28;20211;-69
2021/06/05 05:28:54;;;;;;;11.20;10.30;;;;;;;19.24;84.63;100729.53;5085171;28;20221;-69
2021/06/05 05:31:22;;;;;;;11.20;10.50;;;;;;;19.44;83.82;100732.06;5084948;28;20258;-69
2021/06/05 05:33:48;;;;;;;12.40;11.40;;;;;;;19.63;82.95;100731.09;5084930;28;20372;-69
2021/06/05 05:36:16;;;;;;;11.23;10.53;;;;;;;19.73;82.79;100727.06;5085721;28;20208;-69
2021/06/05 05:38:43;;;;;;;10.90;10.13;;;;;;;19.92;82.03;100732.25;5085159;28;20207;-69
2021/06/05 05:41:14;;;;;;;10.17;9.57;;;;;;;20.04;81.08;100736.03;5085403;28;20291;-69
2021/06/05 05:43:39;;;;;;;9.97;9.23;;;;;;;20.10;81.15;100732.16;5084027;28;20736;-69
2021/06/05 05:46:06;;;;;;;11.63;10.83;;;;;;;20.19;80.10;100731.69;5085227;28;20214;-69
2021/06/05 05:48:33;;;;;;;9.20;8.67;;;;;;;20.21;79.98;100737.75;5085197;28;20336;-71
2021/06/05 05:50:59;;;;;;;9.57;9.00;;;;;;;20.24;79.68;100730.50;5084838;28;20196;-69
2021/06/05 05:53:25;;;;;;;7.80;7.30;;;;;;;20.33;79.87;100744.19;5084502;28;20231;-69
2021/06/05 05:55:51;;;;;;;9.87;9.23;;;;;;;20.39;79.41;100739.38;5084656;28;20207;-70
2021/06/05 05:58:20;;;;;;;12.37;11.57;;;;;;;20.41;78.20;100741.97;5084093;28;20663;-69
2021/06/05 06:00:49;;;;;;;12.63;11.87;;;;;;;20.49;77.80;100745.03;5084792;28;20214;-69
2021/06/05 06:03:16;;;;;;;11.47;10.60;;;;;;;20.52;77.65;100739.59;5084024;28;20226;-69
2021/06/05 06:05:42;;;;;;;11.73;11.03;;;;;;;20.57;77.36;100745.50;5084989;28;20206;-69
2021/06/05 06:08:09;;;;;;;12.67;11.90;;;;;;;20.64;77.75;100748.69;5084443;28;20212;-69
2021/06/05 06:10:36;;;;;;;13.53;12.53;;;;;;;20.68;77.13;100744.06;5084106;28;20205;-69
2021/06/05 06:13:03;;;;;;;12.93;12.13;;;;;;;20.71;77.17;100741.22;5083097;28;20199;-69
2021/06/05 06:15:31;;;;;;;12.23;11.33;;;;;;;20.69;77.10;100748.41;5083823;28;20227;-68
2021/06/05 06:17:58;;;;;;;12.20;11.30;;;;;;;20.69;77.31;100746.59;5083625;28;20662;-69
2021/06/05 06:20:27;;;;;;;12.97;12.07;;;;;;;20.71;77.23;100743.88;5083590;28;20210;-70
2021/06/05 06:22:54;;;;;;;12.07;11.17;;;;;;;20.76;77.23;100747.13;5083623;28;20230;-69
2021/06/05 06:25:21;;;;;;;11.37;10.67;;;;;;;20.81;76.82;100745.06;5083474;28;20288;-69
2021/06/05 06:27:49;;;;;;;11.73;10.93;;;;;;;20.88;76.98;100733.16;5083096;28;20207;-69
2021/06/05 06:30:16;;;;;;;12.00;11.30;;;;;;;20.92;76.52;100737.34;5083953;28;20261;-69
2021/06/05 06:32:47;;;;;;;12.40;11.70;;;;;;;21.00;76.63;100732.44;5083177;28;20208;-69
2021/06/05 06:35:13;;;;;;;12.07;11.23;;;;;;;20.99;76.36;100733.41;5083746;28;20212;-72
2021/06/05 06:37:39;;;;;;;12.10;11.30;;;;;;;21.03;76.33;100734.09;5082953;28;20261;-71
2021/06/05 06:40:06;;;;;;;12.43;11.73;;;;;;;21.02;76.74;100738.53;5083359;28;20207;-71
2021/06/05 06:42:32;;;;;;;12.90;12.10;;;;;;;21.06;76.55;100741.00;5082655;28;20262;-71
2021/06/05 06:44:57;;;;;;;12.67;11.97;;;;;;;21.08;76.59;100747.09;5083435;28;20227;-71
2021/06/05 06:47:23;;;;;;;13.20;12.30;;;;;;;21.08;76.85;100745.28;5083402;28;20289;-71
2021/06/05 06:49:51;;;;;;;13.00;12.27;;;;;;;21.17;76.65;100754.53;5082978;28;20219;-71
2021/06/05 06:52:16;;;;;;;14.13;13.07;;;;;;;21.26;76.67;100753.13;5083045;28;20235;-71
2021/06/05 06:54:42;;;;;;;13.23;12.33;;;;;;;21.33;76.53;100749.19;5082860;28;20270;-72
2021/06/05 06:57:08;;;;;;;12.33;11.53;;;;;;;21.40;76.35;100746.03;5082241;28;20287;-72
2021/06/05 06:59:34;;;;;;;13.20;12.30;;;;;;;21.49;75.92;100743.84;5083416;28;20204;-71
2021/06/05 07:02:00;;;;;;;11.73;11.03;;;;;;;21.55;76.03;100749.63;5082217;28;20280;-71
2021/06/05 07:04:26;;;;;;;12.53;11.73;;;;;;;21.68;75.72;100739.09;5083055;28;20270;-71
2021/06/05 07:06:53;;;;;;;12.40;11.60;;;;;;;21.87;75.31;100745.97;5082799;28;20210;-71
2021/06/05 07:09:19;;;;;;;12.23;11.37;;;;;;;22.04;75.10;100744.91;5082426;28;20204;-71
2021/06/05 07:11:44;;;;;;;11.93;10.87;;;;;;;22.19;74.00;100739.50;5083319;28;20254;-71
2021/06/05 07:14:10;;;;;;;12.07;11.10;;;;;;;22.32;73.76;100742.28;5081880;28;20310;-71
2021/06/05 07:16:38;;;;;;;11.40;10.70;;;;;;;22.44;73.50;100742.44;5083235;28;20218;-72
2021/06/05 07:19:04;;;;;;;10.60;9.90;;;;;;;22.52;73.11;100749.00;5082614;28;20584;-71
2021/06/05 07:21:30;;;;;;;10.77;10.13;;;;;;;22.58;73.00;100743.28;5082459;28;20228;-71
2021/06/05 07:23:57;;;;;;;10.10;9.50;;;;;;;22.66;72.39;100740.13;5081934;28;20706;-71
2021/06/05 07:26:27;;;;;;;10.77;10.07;;;;;;;22.72;71.92;100742.38;5081284;28;20204;-71
2021/06/05 07:28:55;;;;;;;10.27;9.63;;;;;;;22.79;71.26;100733.06;5082295;28;20619;-71
2021/06/05 07:31:25;;;;;;;10.77;9.97;;;;;;;22.88;71.92;100738.72;5078357;28;21354;-72
2021/06/05 07:33:50;;;;;;;10.47;9.77;;;;;;;22.93;71.16;100741.91;5078272;28;20227;-71
2021/06/05 07:36:21;;;;;;;10.57;9.87;;;;;;;22.95;71.55;100742.66;5081897;28;20291;-72
2021/06/05 07:38:47;;;;;;;9.93;9.33;;;;;;;23.03;70.74;100736.88;5082092;28;20238;-68
2021/06/05 07:41:15;;;;;;;9.63;8.93;;;;;;;23.07;70.46;100739.25;5082616;28;20218;-68
2021/06/05 07:43:41;;;;;;;9.03;8.43;;;;;;;23.06;70.05;100742.84;5082175;28;20642;-69
2021/06/05 07:46:07;;;;;;;8.90;8.30;;;;;;;23.14;69.69;100747.66;5082991;28;20196;-70
2021/06/05 07:48:35;;;;;;;9.30;8.67;;;;;;;23.13;69.35;100744.16;5083304;28;20686;-70
2021/06/05 07:51:01;;;;;;;8.53;8.00;;;;;;;23.18;69.65;100744.69;5082652;28;20211;-69
2021/06/05 07:53:27;;;;;;;9.07;8.50;;;;;;;23.22;69.05;100750.66;5082551;28;20223;-69
2021/06/05 07:55:53;;;;;;;8.20;7.70;;;;;;;23.23;69.34;100748.84;5082148;28;20284;-70
2021/06/05 07:58:21;;;;;;;8.63;8.10;;;;;;;23.26;69.38;100743.34;5082708;28;20199;-71
2021/06/05 08:00:47;;;;;;;7.63;7.03;;;;;;;23.34;69.24;100746.34;5082828;28;20210;-71
2021/06/05 08:03:13;;;;;;;8.10;7.60;;;;;;;23.40;68.96;100737.91;5081914;28;20224;-71
2021/06/05 08:05:40;;;;;;;8.50;7.90;;;;;;;23.50;68.46;100747.00;5083068;28;20212;-71
2021/06/05 08:08:09;;;;;;;8.90;8.20;;;;;;;23.58;67.97;100749.13;5082323;28;20590;-71
2021/06/05 08:10:35;;;;;;;8.93;8.43;;;;;;;23.55;67.84;100744.03;5083089;28;20207;-70
2021/06/05 08:13:01;;;;;;;7.40;6.67;;;;;;;23.53;67.80;100753.94;5081815;28;20204;-70
2021/06/05 08:15:31;;;;;;;7.53;7.13;;;;;;;23.59;67.98;100750.84;5082803;28;20606;-70
2021/06/05 08:17:58;;;;;;;8.10;7.60;;;;;;;23.09;68.69;100748.00;5081873;28;20309;-70
2021/06/05 08:20:27;;;;;;;7.40;6.80;;;;;;;23.12;69.41;100757.56;5082733;28;20212;-70
2021/06/05 08:22:52;;;;;;;7.90;7.33;;;;;;;22.85;69.10;100753.06;5081575;28;20223;-72
2021/06/05 08:25:19;;;;;;;8.47;7.97;;;;;;;22.65;70.96;100759.69;5081335;28;20625;-70
2021/06/05 08:27:45;;;;;;;8.40;7.80;;;;;;;22.51;71.01;100760.56;5080992;28;20242;-68
2021/06/05 08:30:17;;;;;;;9.43;8.83;;;;;;;22.22;71.85;100762.41;5082137;28;20205;-68
2021/06/05 08:32:45;;;;;;;10.37;9.60;;;;;;;22.26;72.48;100761.28;5082386;28;20226;-68
2021/06/05 08:35:14;;;;;;;10.70;9.87;;;;;;;22.06;72.85;100757.19;5082347;28;20215;-68
2021/06/05 08:37:40;;;;;;;10.00;9.40;;;;;;;22.17;72.30;100748.53;5081724;28;20212;-68
2021/06/05 08:40:07;;;;;;;10.70;9.97;;;;;;;22.35;72.32;100751.88;5082101;28;20200;-68
2021/06/05 08:42:41;;;;;;;10.97;10.27;;;;;;;22.44;72.30;100753.06;5081112;28;20259;-68
2021/06/05 08:45:10;;;;;;;10.10;9.47;;;;;;;22.57;71.98;100743.38;5080784;28;20251;-69
2021/06/05 08:47:38;;;;;;;11.37;10.63;;;;;;;22.84;71.35;100748.72;5081249;28;20204;-69
2021/06/05 08:50:07;;;;;;;11.03;10.33;;;;;;;23.04;70.75;100747.44;5081886;28;20697;-69
2021/06/05 08:52:38;;;;;;;12.30;11.50;;;;;;;23.17;69.89;100756.31;5083234;28;20234;-69
2021/06/05 08:55:10;;;;;;;11.43;10.63;;;;;;;23.44;69.68;100751.91;5084227;28;20216;-69
2021/06/05 08:57:38;;;;;;;11.40;10.70;;;;;;;23.70;69.28;100753.63;5085076;28;20889;-69
2021/06/05 09:00:12;;;;;;;12.93;12.13;;;;;;;23.90;69.16;100756.75;5085640;28;20378;-69
2021/06/05 09:02:39;;;;;;;14.57;13.57;;;;;;;23.69;68.50;100756.41;5085416;28;20251;-69
2021/06/05 09:05:09;;;;;;;13.60;12.80;;;;;;;23.84;68.00;100755.34;5085198;28;20220;-68
2021/06/05 09:07:34;;;;;;;13.50;12.57;;;;;;;24.00;68.37;100765.78;5085774;28;20215;-68
2021/06/05 09:10:01;;;;;;;13.63;12.67;;;;;;;24.15;67.10;100764.72;5085657;28;20204;-69
2021/06/05 09:12:26;;;;;;;14.27;13.27;;;;;;;24.17;66.62;100756.63;5085094;28;20208;-69
2021/06/05 09:14:57;;;;;;;14.07;13.17;;;;;;;24.23;65.38;100763.34;5084054;28;20781;-68
2021/06/05 09:17:35;;;;;;;13.47;12.53;;;;;;;24.35;65.09;100757.97;5084562;28;20221;-68
2021/06/05 09:20:10;;;;;;;13.00;12.00;;;;;;;24.46;65.63;100767.00;5084976;28;21170;-68
2021/06/05 09:22:40;;;;;;;12.97;12.13;;;;;;;24.44;65.35;100760.94;5083872;28;20272;-69
2021/06/05 09:25:36;;;;;;;14.27;13.27;;;;;;;24.57;65.26;100757.28;5085641;28;20219;-69
2021/06/05 09:28:14;;;;;;;14.03;13.10;;;;;;;24.72;65.59;100752.66;5049141;28;20682;-69
2021/06/05 09:30:42;;;;;;;14.03;13.13;;;;;;;24.90;64.56;100749.59;5085232;28;20466;-69
2021/06/05 09:33:11;;;;;;;13.63;12.83;;;;;;;24.94;64.33;100751.94;5084365;28;20221;-68
2021/06/05 09:35:42;;;;;;;15.70;14.60;;;;;;;25.10;64.56;100746.28;5085378;28;20212;-68
2021/06/05 09:38:23;;;;;;;15.70;14.40;;;;;;;25.28;63.44;100751.25;5085417;28;20215;-68
2021/06/05 09:41:00;;;;;;;13.53;12.63;;;;;;;25.34;64.39;100746.28;5085353;28;20218;-69
2021/06/05 09:43:27;;;;;;;14.67;13.67;;;;;;;25.47;63.74;100748.00;5084310;28;20611;-69
2021/06/05 09:46:13;;;;;;;15.23;14.27;;;;;;;25.52;63.07;100743.16;5085028;28;20199;-69
2021/06/05 09:48:40;;;;;;;14.30;13.33;;;;;;;25.23;63.17;100740.03;5085637;28;20211;-69
2021/06/05 09:51:28;;;;;;;13.80;13.00;;;;;;;24.98;64.11;100742.72;5084638;28;20204;-68
2021/06/05 09:54:01;;;;;;;14.23;13.33;;;;;;;25.12;64.15;100748.84;5083312;28;20228;-68
2021/06/05 09:56:29;;;;;;;13.10;12.30;;;;;;;25.15;64.18;100743.25;5084410;28;20204;-69
2021/06/05 09:59:02;;;;;;;13.40;12.60;;;;;;;25.20;63.92;100748.28;5084667;28;20210;-68
2021/06/05 10:01:30;;;;;;;12.47;11.67;;;;;;;25.09;63.66;100749.06;5084715;28;20215;-69
2021/06/05 10:04:08;;;;;;;11.87;11.17;;;;;;;25.01;64.44;100749.63;5083527;28;20220;-69
2021/06/05 10:06:38;;;;;;;14.27;13.30;;;;;;;24.88;64.70;100744.38;5085173;28;20714;-69
2021/06/05 10:09:32;;;;;;;13.10;12.30;;;;;;;24.86;65.57;100740.13;5084396;28;20208;-69
2021/06/05 10:12:01;;;;;;;15.07;13.63;;;;;;;24.87;64.99;100734.66;5084111;28;20223;-69
2021/06/05 10:14:47;;;;;;;15.87;14.63;;;;;;;24.76;65.47;100731.94;5084023;28;20729;-68
2021/06/05 10:17:21;;;;;;;14.43;13.53;;;;;;;24.65;65.65;100737.22;5084179;28;20217;-68
2021/06/05 10:19:53;;;;;;;17.63;16.57;;;;;;;24.07;67.33;100739.56;5084588;28;20213;-69
2021/06/05 10:22:22;;;;;;;16.43;15.37;;;;;;;24.18;67.12;100734.31;5083988;28;20228;-69
2021/06/05 10:24:54;;;;;;;16.10;15.20;;;;;;;24.18;67.39;100745.84;5084348;28;20238;-69
2021/06/05 10:27:25;;;;;;;17.90;16.80;;;;;;;24.18;67.20;100742.31;5083640;28;20315;-68
2021/06/05 10:29:55;;;;;;;17.43;16.23;;;;;;;24.16;67.17;100737.09;5084046;28;20231;-68
2021/06/05 10:32:25;;;;;;;17.70;16.73;;;;;;;24.13;66.84;100733.78;5083912;28;20204;-68
2021/06/05 10:34:57;;;;;;;16.03;15.03;;;;;;;24.08;66.73;100727.91;5083685;28;20239;-68
2021/06/05 10:37:28;;;;;;;16.93;15.90;;;;;;;24.10;66.97;100731.34;5084358;28;20204;-69
2021/06/05 10:39:55;;;;;;;17.40;16.07;;;;;;;24.09;67.85;100735.81;5084031;28;20227;-69
2021/06/05 10:42:25;;;;;;;16.80;15.43;;;;;;;23.93;68.49;100738.72;5083770;28;20264;-68
2021/06/05 10:44:51;;;;;;;20.27;17.73;;;;;;;23.91;68.77;100747.78;5083726;28;20234;-68
2021/06/05 10:47:21;;;;;;;22.90;18.83;;;;;;;23.73;68.43;100761.41;5083610;28;20211;-68
2021/06/05 10:49:51;;;;;;;19.03;17.23;;;;;;;23.74;69.06;100744.44;5083905;28;20693;-68
2021/06/05 10:52:27;;;;;;;18.67;17.17;;;;;;;23.78;68.75;100755.78;5082265;28;20578;-68
2021/06/05 10:54:57;;;;;;;18.80;17.33;;;;;;;23.74;68.82;100746.25;5083045;28;20231;-69
2021/06/05 10:57:32;;;;;;;19.53;18.00;;;;;;;23.71;69.58;100744.66;5083295;28;20200;-69
2021/06/05 10:59:59;;;;;;;18.50;17.40;;;;;;;23.69;69.36;100751.06;5083595;28;20249;-68
2021/06/05 11:02:47;;;;;;;20.27;18.57;;;;;;;23.47;70.29;100757.00;5083927;28;20239;-68
2021/06/05 11:05:41;;;;;;;19.73;18.30;;;;;;;23.39;70.67;100758.38;5079929;28;20207;-68
2021/06/05 11:08:32;;;;;;;24.33;22.77;;;;;;;22.86;72.03;100760.13;5084526;28;20207;-69
2021/06/05 11:11:36;;;;;;;22.10;20.60;;;;;;;22.76;72.81;100757.19;5082774;28;20273;-68
2021/06/05 11:14:08;;;;;;;21.67;20.40;;;;;;;22.89;72.56;100751.91;5082247;28;20242;-69
2021/06/05 11:17:05;;;;;;;17.10;15.93;;;;;;;22.88;74.32;100758.19;5083414;28;20208;-69
2021/06/05 11:19:33;;;;;;;15.07;14.17;;;;;;;22.37;73.96;100772.09;5083828;28;20211;-69
2021/06/05 11:22:01;;;;;;;11.83;10.83;;;;;;;22.10;74.08;100776.44;5082687;28;20231;-68
2021/06/05 11:24:29;;;;;;;14.50;13.40;;;;;;;21.73;76.20;100794.66;5083242;28;20281;-68
2021/06/05 11:26:58;;;;;;;15.10;14.00;;;;;;;21.66;76.80;100801.25;5083137;28;20246;-69
2021/06/05 11:29:50;;;;;;;15.73;14.43;;;;;;;21.75;77.49;100806.88;5082523;28;20204;-69